Flight Track Log - Related Links

Times and Time Zones

All times are in EDT time to prevent confusion due to time zone crossing. See the THY10 flight status page for this flight to view local times or setup timezone preferences in your user account.

Time Position Orientation Groundspeed Altitude Reporting Facility
EDT Latitude Longitude Course Direction KTS MPH feet Rate Location/Type
Sun 10:32:16 PM 33.8834 -118.5835 227° Southwest 272 313 4,700  Level FlightAware ADS-B
Sun 10:32:44 PM 33.8542 -118.5995 181° South 279 321 5,900 2,192 Climbing FlightAware ADS-B
Sun 10:33:08 PM 33.8221 -118.5860 143° Southeast 287 330 6,600 1,733 Climbing FlightAware ADS-B
Sun 10:33:29 PM 33.8068 -118.5577 106° East 294 338 7,200 1,655 Climbing FlightAware ADS-B
Sun 10:33:37 PM 33.8052 -118.5437 94° East 297 342 7,400 1,800 Climbing FlightAware ADS-B
Sun 10:33:49 PM 33.8074 -118.5261 77° East 299 344 7,800 1,875 Climbing FlightAware ADS-B
Sun 10:33:53 PM 33.8093 -118.5199 68° East 300 345 7,900 2,072 Climbing FlightAware ADS-B
Sun 10:37:03 PM 34.0085 -118.3000 57° Northeast 362 417 14,500 1,940 Climbing FlightAware ADS-B
Sun 10:37:45 PM 34.0539 -118.2189 56° Northeast 396 456 15,400 1,084 Climbing FlightAware ADS-B
Sun 10:38:26 PM 34.0977 -118.1415 56° Northeast 432 497 16,000 1,355 Climbing FlightAware ADS-B
Sun 10:39:18 PM 34.1590 -118.0333 56° Northeast 459 528 17,500 1,747 Climbing FlightAware ADS-B
Sun 10:41:04 PM 34.2761 -117.8249 56° Northeast 484 557 20,600 1,784 Climbing FlightAware ADS-B
Sun 10:42:23 PM 34.3818 -117.6359 56° Northeast 501 577 23,000 1,607 Climbing FlightAware ADS-B (KBNG)
Sun 10:43:52 PM 34.4992 -117.4231 56° Northeast 503 579 25,100 1,320 Climbing Los Angeles Center
Sun 10:44:53 PM 34.5797 -117.2786 56° Northeast 514 592 26,300 1,122 Climbing Los Angeles Center
Sun 10:45:55 PM 34.6611 -117.1275 57° Northeast 533 613 27,400 1,161 Climbing Los Angeles Center
Sun 10:46:57 PM 34.7447 -116.9744 56° Northeast 542 624 28,700 1,220 Climbing Los Angeles Center
Sun 10:47:58 PM 34.8286 -116.8194 57° Northeast 548 631 29,900 1,122 Climbing Los Angeles Center
Sun 10:49:00 PM 34.9294 -116.6319 57° Northeast 552 635 31,000 537 Climbing Los Angeles Center
Sun 10:50:01 PM 35.0292 -116.4922 49° Northeast 552 635 31,000  Level Los Angeles Center
Sun 10:51:03 PM 35.1344 -116.3622 45° Northeast 546 628 31,000  Level Los Angeles Center
Sun 10:52:05 PM 35.2389 -116.2308 46° Northeast 545 627 31,000  Level Los Angeles Center
Sun 10:53:06 PM 35.3394 -116.1003 47° Northeast 533 613 31,000  Level Los Angeles Center
Sun 10:58:40 PM 35.9685 -115.3900 32° Northeast 527 606 31,000  Level FlightAware ADS-B
Sun 10:59:37 PM 36.0851 -115.2976 34° Northeast 529 609 31,000  Level FlightAware ADS-B
Sun 11:00:07 PM 36.1460 -115.2477 34° Northeast 530 610 31,000  Level FlightAware ADS-B
Sun 11:00:43 PM 36.2210 -115.1908 31° Northeast 529 609 31,000  Level FlightAware ADS-B
Sun 11:01:26 PM 36.3065 -115.1271 31° Northeast 529 609 31,000  Level FlightAware ADS-B
Sun 11:01:56 PM 36.3756 -115.0753 31° Northeast 530 610 31,000  Level FlightAware ADS-B
Sun 11:06:43 PM 36.9706 -114.6214 32° Northeast 525 604 31,000  Level FlightAware ADS-B (KMOD)
Sun 11:07:13 PM 37.0330 -114.5733 32° Northeast 524 603 31,000  Level FlightAware ADS-B (KMOD)
Sun 11:07:49 PM 37.1062 -114.5169 32° Northeast 521 600 31,000  Level FlightAware ADS-B (KMOD)
Sun 11:08:45 PM 37.2213 -114.4281 32° Northeast 520 598 31,000  Level FlightAware ADS-B (KMOD)
Sun 11:09:17 PM 37.2863 -114.3777 32° Northeast 520 598 31,000  Level FlightAware ADS-B (KMOD)
Sun 11:10:27 PM 37.4295 -114.2664 32° Northeast 519 597 31,000  Level FlightAware ADS-B
Sun 11:11:12 PM 37.5216 -114.1944 32° Northeast 518 596 31,000  Level FlightAware ADS-B (KMOD)
Sun 11:12:08 PM 37.6344 -114.1062 32° Northeast 515 593 31,000  Level FlightAware ADS-B (KMOD)
Sun 11:16:48 PM 38.2009 -113.6577 32° Northeast 519 597 31,000  Level FlightAware ADS-B
Sun 11:17:46 PM 38.3157 -113.5658 32° Northeast 519 597 31,000  Level FlightAware ADS-B
Sun 11:18:55 PM 38.4616 -113.4484 33° Northeast 518 596 31,000  Level FlightAware ADS-B
Sun 11:21:00 PM 38.7020 -113.2841 23° Northeast 504 580 31,000  Level FlightAware ADS-B
Sun 11:22:01 PM 38.8511 -113.2018 24° Northeast 504 580 31,000  Level FlightAware ADS-B
Sun 11:22:56 PM 38.9677 -113.1339 25° Northeast 504 580 31,000  Level FlightAware ADS-B
Sun 11:24:11 PM 39.1257 -113.0408 25° Northeast 502 578 31,000  Level FlightAware ADS-B
Sun 11:25:27 PM 39.2877 -112.9455 25° Northeast 493 567 31,000  Level FlightAware ADS-B (KBTF)
Sun 11:26:07 PM 39.3707 -112.8966 25° Northeast 497 572 31,000  Level FlightAware ADS-B (KBTF)
Sun 11:26:48 PM 39.4559 -112.8467 24° Northeast 498 573 31,000  Level FlightAware ADS-B (KBTF)
Sun 11:27:27 PM 39.5385 -112.7994 24° Northeast 490 564 31,000  Level FlightAware ADS-B (KBTF)
Sun 11:28:07 PM 39.6222 -112.7516 24° Northeast 492 566 31,000  Level FlightAware ADS-B (KBTF)
Sun 11:28:39 PM 39.6905 -112.7123 24° Northeast 494 568 31,000  Level FlightAware ADS-B
Sun 11:29:19 PM 39.7728 -112.6648 24° Northeast 495 570 31,000  Level FlightAware ADS-B
Sun 11:30:00 PM 39.8595 -112.6146 24° Northeast 490 564 31,000  Level FlightAware ADS-B
Sun 11:30:32 PM 39.9184 -112.5801 24° Northeast 488 562 31,000  Level FlightAware ADS-B
Sun 11:31:08 PM 39.9995 -112.5330 24° Northeast 491 565 31,000  Level FlightAware ADS-B (KBTF)
Sun 11:31:47 PM 40.0799 -112.4861 24° Northeast 493 567 31,000  Level FlightAware ADS-B (KBTF)
Sun 11:32:17 PM 40.1428 -112.4492 24° Northeast 493 567 31,000  Level FlightAware ADS-B
Sun 11:32:49 PM 40.2078 -112.4110 25° Northeast 482 555 31,000  Level FlightAware ADS-B (KBTF)
Sun 11:33:28 PM 40.2893 -112.3633 24° Northeast 496 571 31,000  Level FlightAware ADS-B (KBTF)
Sun 11:33:39 PM 40.3107 -112.3508 24° Northeast 499 574 31,000  Level FlightAware ADS-B
Sun 11:34:18 PM 40.3937 -112.3020 25° Northeast 479 551 31,000  Level FlightAware ADS-B
Sun 11:34:48 PM 40.4544 -112.2659 25° Northeast 480 552 31,000  Level FlightAware ADS-B (KBTF)
Sun 11:35:18 PM 40.5162 -112.2293 25° Northeast 476 548 31,000  Level FlightAware ADS-B
Sun 11:35:48 PM 40.5767 -112.1934 25° Northeast 480 552 31,000  Level FlightAware ADS-B (KBTF)
Sun 11:36:27 PM 40.6563 -112.1461 25° Northeast 481 554 31,000  Level FlightAware ADS-B (KBTF)
Sun 11:37:07 PM 40.7394 -112.0964 24° Northeast 496 571 31,000  Level FlightAware ADS-B (KBTF)
Sun 11:37:39 PM 40.8078 -112.0555 25° Northeast 492 566 31,000  Level FlightAware ADS-B
Sun 11:38:22 PM 40.8968 -112.0021 25° Northeast 498 573 31,000  Level FlightAware ADS-B
Sun 11:38:53 PM 40.9627 -111.9626 24° Northeast 495 570 31,000  Level FlightAware ADS-B
Sun 11:39:27 PM 41.0337 -111.9200 25° Northeast 496 571 31,000  Level FlightAware ADS-B (KBTF)
Sun 11:40:06 PM 41.1139 -111.8715 25° Northeast 497 572 31,000  Level FlightAware ADS-B
Sun 11:40:47 PM 41.2004 -111.8190 25° Northeast 494 568 31,000  Level FlightAware ADS-B
Sun 11:41:08 PM 41.2432 -111.7932 25° Northeast 495 570 31,000  Level FlightAware ADS-B (KBTF)
Sun 11:41:47 PM 41.3250 -111.7435 25° Northeast 497 572 31,000  Level FlightAware ADS-B
Sun 11:42:37 PM 41.4306 -111.6790 25° Northeast 495 570 31,000  Level FlightAware ADS-B
Sun 11:43:17 PM 41.5150 -111.6273 25° Northeast 495 570 31,000  Level FlightAware ADS-B
Sun 11:43:50 PM 41.5844 -111.5848 25° Northeast 498 573 31,000  Level FlightAware ADS-B
Sun 11:44:36 PM 41.6700 -111.5314 25° Northeast 501 577 31,000  Level Salt Lake Center
Sun 11:45:37 PM 41.7958 -111.4547 24° Northeast 498 573 31,000  Level Salt Lake Center
Sun 11:46:39 PM 41.9222 -111.3756 25° Northeast 500 575 31,000  Level Salt Lake Center
Sun 11:47:40 PM 42.0475 -111.2981 25° Northeast 500 575 31,000  Level Salt Lake Center
Sun 11:48:41 PM 42.1708 -111.2217 25° Northeast 493 567 31,000  Level Salt Lake Center
Sun 11:49:43 PM 42.2972 -111.1425 25° Northeast 495 570 31,000  Level Salt Lake Center
Sun 11:50:44 PM 42.4217 -111.0633 25° Northeast 495 570 31,000  Level Salt Lake Center
Sun 11:51:45 PM 42.5469 -110.9856 25° Northeast 496 571 31,000  Level Salt Lake Center
Sun 11:52:46 PM 42.6833 -110.8978 25° Northeast 501 577 31,000  Level Salt Lake Center
Sun 11:53:47 PM 42.8186 -110.8092 26° Northeast 510 587 31,000  Level Salt Lake Center
Sun 11:54:49 PM 42.9606 -110.7181 25° Northeast 507 583 31,000  Level Salt Lake Center
Sun 11:55:50 PM 43.0842 -110.6394 25° Northeast 510 587 31,000  Level Salt Lake Center
Sun 11:56:51 PM 43.2075 -110.5603 25° Northeast 511 588 31,000  Level Salt Lake Center
Sun 11:57:52 PM 43.3411 -110.4714 26° Northeast 517 595 31,000  Level Salt Lake Center
Sun 11:58:54 PM 43.4850 -110.3772 25° Northeast 515 593 31,000  Level Salt Lake Center
Sun 11:59:55 PM 43.6183 -110.2919 25° Northeast 515 593 31,000  Level Salt Lake Center
Mon 12:00:56 AM 43.7425 -110.2083 26° Northeast 516 594 31,000  Level Salt Lake Center
Mon 12:01:57 AM 43.8656 -110.1261 26° Northeast 516 594 31,000  Level Salt Lake Center
Mon 12:02:58 AM 44.0097 -110.0306 25° Northeast 516 594 31,000  Level Salt Lake Center
Mon 12:04:00 AM 44.1333 -109.9475 26° Northeast 516 594 31,000  Level Salt Lake Center
Mon 12:05:01 AM 44.2767 -109.8494 26° Northeast 517 595 31,000  Level Salt Lake Center
Mon 12:06:02 AM 44.4019 -109.7669 25° Northeast 518 596 31,000  Level Salt Lake Center
Mon 12:07:03 AM 44.5247 -109.6839 26° Northeast 517 595 31,000  Level Salt Lake Center
Mon 12:08:04 AM 44.6467 -109.5967 27° Northeast 510 587 31,000  Level Salt Lake Center
Mon 12:09:06 AM 44.8042 -109.4892 26° Northeast 519 597 31,000  Level Salt Lake Center
Mon 12:10:07 AM 44.9350 -109.3992 26° Northeast 520 598 31,000  Level Salt Lake Center
Mon 12:11:08 AM 45.0647 -109.3075 27° Northeast 521 600 31,000  Level Salt Lake Center
Mon 12:12:09 AM 45.1953 -109.2183 26° Northeast 521 600 31,000  Level Salt Lake Center
Mon 12:13:11 AM 45.3239 -109.1267 27° Northeast 519 597 31,000  Level Salt Lake Center
Mon 12:14:12 AM 45.4542 -109.0344 26° Northeast 519 597 31,000  Level Salt Lake Center
Mon 12:15:13 AM 45.5836 -108.9417 27° Northeast 519 597 31,000  Level Salt Lake Center
Mon 12:16:14 AM 45.7144 -108.8486 26° Northeast 521 600 31,000  Level Salt Lake Center
Mon 12:17:16 AM 45.8453 -108.7531 27° Northeast 526 605 31,000  Level Salt Lake Center
Mon 12:18:17 AM 45.9758 -108.6600 26° Northeast 526 605 31,000  Level Salt Lake Center
Mon 12:19:18 AM 46.1061 -108.5642 27° Northeast 526 605 31,000  Level Salt Lake Center
Mon 12:20:20 AM 46.2378 -108.4681 27° Northeast 526 605 31,000  Level Salt Lake Center
Mon 12:21:21 AM 46.3944 -108.3525 27° Northeast 527 606 31,000  Level Salt Lake Center
Mon 12:22:22 AM 46.5250 -108.2550 27° Northeast 527 606 31,000  Level Salt Lake Center
Mon 12:23:24 AM 46.6544 -108.1583 27° Northeast 526 605 31,000  Level Salt Lake Center
Mon 12:24:25 AM 46.7856 -108.0603 27° Northeast 526 605 31,000  Level Salt Lake Center
Mon 12:25:26 AM 46.9153 -107.9611 28° Northeast 526 605 31,000  Level Salt Lake Center
Mon 12:26:27 AM 47.0447 -107.8622 27° Northeast 526 605 31,000  Level Salt Lake Center
Mon 12:27:29 AM 47.1750 -107.7628 27° Northeast 526 605 31,000  Level Salt Lake Center
Mon 12:28:30 AM 47.3050 -107.6622 28° Northeast 526 605 31,000  Level Salt Lake Center
Mon 12:29:31 AM 47.4364 -107.5611 27° Northeast 527 606 31,000  Level Salt Lake Center
Mon 12:30:33 AM 47.5664 -107.4697 25° Northeast 530 610 31,000  Level Salt Lake Center
Mon 12:31:34 AM 47.7039 -107.3639 27° Northeast 536 617 31,000  Level Salt Lake Center
Mon 12:32:35 AM 47.8611 -107.2394 28° Northeast 537 618 31,000  Level Salt Lake Center
Mon 12:33:36 AM 47.9900 -107.1369 28° Northeast 531 611 31,000  Level Salt Lake Center
Mon 12:34:38 AM 48.1225 -107.0328 28° Northeast 533 613 31,000  Level Salt Lake Center
Mon 12:35:39 AM 48.2525 -106.9281 28° Northeast 533 613 31,000  Level Salt Lake Center
Mon 12:36:40 AM 48.3844 -106.8231 28° Northeast 533 613 31,000  Level Salt Lake Center
Mon 12:37:42 AM 48.5156 -106.7175 28° Northeast 533 613 31,000  Level Salt Lake Center
Mon 12:38:43 AM 48.6456 -106.6122 28° Northeast 533 613 31,000  Level Salt Lake Center
Mon 12:39:44 AM 48.7767 -106.5047 28° Northeast 533 613 31,000  Level Salt Lake Center
Mon 12:40:45 AM 48.9075 -106.3992 28° Northeast 533 613 31,000  Level Salt Lake Center
Mon 12:41:47 AM 49.0386 -106.2908 28° Northeast 533 613 31,000  Level Salt Lake Center
Mon 12:43:02 AM 49.2000 -106.1667 27° Northeast 540 621 31,000  Level Winnipeg Center
Mon 12:44:02 AM 49.3333 -106.0333 33° Northeast 540 621 31,000  Level Winnipeg Center
Mon 12:45:02 AM 49.4500 -105.9333 29° Northeast 540 621 31,000  Level Winnipeg Center
Mon 12:46:02 AM 49.6000 -105.8333 23° Northeast 540 621 31,000  Level Winnipeg Center
Mon 12:47:02 AM 49.7333 -105.7333 26° Northeast 540 621 31,000  Level Winnipeg Center
Mon 12:48:02 AM 49.8500 -105.6167 33° Northeast 540 621 31,000  Level Winnipeg Center
Mon 12:49:02 AM 50.0000 -105.4833 30° Northeast 540 621 31,000  Level Winnipeg Center
Mon 12:50:02 AM 50.1167 -105.3833 29° Northeast 540 621 31,000  Level Winnipeg Center
Mon 12:51:02 AM 50.2500 -105.2667 29° Northeast 540 621 31,000  Level Winnipeg Center
Mon 12:52:02 AM 50.3833 -105.1333 33° Northeast 540 621 31,000  Level Winnipeg Center
Mon 12:53:02 AM 50.5000 -105.0333 29° Northeast 540 621 31,000  Level Winnipeg Center
Mon 12:54:02 AM 50.6500 -104.9167 26° Northeast 540 621 31,000  Level Winnipeg Center
Mon 12:55:02 AM 50.7500 -104.7833 40° Northeast 540 621 31,000  Level Winnipeg Center
Mon 12:56:02 AM 50.8833 -104.6167 38° Northeast 540 621 31,000  Level Winnipeg Center
Mon 12:57:02 AM 51.0000 -104.4667 39° Northeast 550 633 31,000  Level Winnipeg Center
Mon 12:58:02 AM 51.1167 -104.3000 42° Northeast 550 633 31,000  Level Winnipeg Center
Mon 12:59:02 AM 51.2333 -104.1667 36° Northeast 550 633 31,000  Level Winnipeg Center
Mon 01:00:02 AM 51.3500 -104.0000 42° Northeast 550 633 31,000  Level Winnipeg Center
Mon 01:01:02 AM 51.4667 -103.8500 39° Northeast 550 633 31,000  Level Winnipeg Center
Mon 01:02:02 AM 51.6000 -103.6833 38° Northeast 550 633 31,000  Level Winnipeg Center
Mon 01:03:02 AM 51.7000 -103.5333 43° Northeast 550 633 31,000  Level Winnipeg Center
Mon 01:04:02 AM 51.8333 -103.3667 38° Northeast 550 633 31,000  Level Winnipeg Center
Mon 01:05:02 AM 51.9333 -103.2167 43° Northeast 560 644 31,000  Level Winnipeg Center
Mon 01:06:02 AM 52.0667 -103.0500 38° Northeast 550 633 31,000  Level Winnipeg Center
Mon 01:07:02 AM 52.1833 -102.9000 38° Northeast 550 633 31,000  Level Winnipeg Center
Mon 01:08:02 AM 52.3000 -102.7167 44° Northeast 560 644 31,000  Level Winnipeg Center
Mon 01:09:02 AM 52.4333 -102.5333 40° Northeast 560 644 31,000  Level Winnipeg Center
Mon 01:10:02 AM 52.5333 -102.3833 42° Northeast 560 644 31,000  Level Winnipeg Center
Mon 01:11:02 AM 52.6667 -102.2167 37° Northeast 560 644 31,000  Level Winnipeg Center
Mon 01:12:02 AM 52.7833 -102.0667 38° Northeast 570 656 31,000  Level Winnipeg Center
Mon 01:13:02 AM 52.9000 -101.8833 43° Northeast 570 656 31,000  Level Winnipeg Center
Mon 01:14:02 AM 53.0167 -101.7000 43° Northeast 570 656 31,000  Level Winnipeg Center
Mon 01:15:02 AM 53.1333 -101.5000 46° Northeast 560 644 31,000  Level Edmonton Center
Mon 01:16:02 AM 53.2333 -101.3167 48° Northeast 570 656 31,000  Level Edmonton Center
Mon 01:17:02 AM 53.3667 -101.1333 39° Northeast 570 656 31,000  Level Edmonton Center
Mon 01:18:02 AM 53.4833 -100.9500 43° Northeast 570 656 31,000  Level Edmonton Center
Mon 01:19:02 AM 53.6000 -100.8000 37° Northeast 560 644 31,000  Level Edmonton Center
Mon 01:20:02 AM 53.7167 -100.6167 43° Northeast 560 644 31,000  Level Edmonton Center
Mon 01:21:02 AM 53.8333 -100.4333 43° Northeast 560 644 31,000  Level Edmonton Center
Mon 01:22:02 AM 53.9667 -100.2500 39° Northeast 560 644 31,000  Level Edmonton Center
Mon 01:23:02 AM 54.0667 -100.0500 50° Northeast 560 644 31,000  Level Edmonton Center
Mon 01:24:02 AM 54.1833 -99.9000 37° Northeast 560 644 31,000  Level Edmonton Center
Mon 01:25:02 AM 54.3333 -99.7667 27° Northeast 550 633 31,000 400 Level Edmonton Center
Mon 01:26:02 AM 54.4500 -99.6000 40° Northeast 550 633 31,800 700 Climbing Edmonton Center
Mon 01:27:02 AM 54.5667 -99.4667 34° Northeast 540 621 32,400 600 Climbing Edmonton Center
Mon 01:28:02 AM 54.7000 -99.3333 30° Northeast 530 610 33,000 300 Climbing Edmonton Center
Mon 01:29:02 AM 54.8333 -99.1667 36° Northeast 530 610 33,000  Level Edmonton Center
Mon 01:30:02 AM 54.9333 -99.0333 37° Northeast 530 610 33,000  Level Edmonton Center
Mon 01:31:02 AM 55.0667 -98.8667 36° Northeast 530 610 33,000  Level Edmonton Center
Mon 01:32:02 AM 55.2000 -98.7167 33° Northeast 520 598 33,000  Level Edmonton Center
Mon 01:33:02 AM 55.3167 -98.5833 33° Northeast 520 598 33,000  Level Edmonton Center
Mon 01:34:02 AM 55.4333 -98.4500 33° Northeast 530 610 33,000  Level Edmonton Center
Mon 01:35:02 AM 55.5500 -98.3000 36° Northeast 530 610 33,000  Level Edmonton Center
Mon 01:36:02 AM 55.6667 -98.1333 39° Northeast 520 598 33,000  Level Edmonton Center
Mon 01:37:02 AM 55.8000 -97.9833 32° Northeast 530 610 33,000  Level Edmonton Center
Mon 01:38:02 AM 55.9167 -97.8500 33° Northeast 510 587 33,000  Level Edmonton Center
Mon 01:39:02 AM 56.0333 -97.7000 36° Northeast 520 598 33,000  Level Edmonton Center
Mon 01:40:02 AM 56.1500 -97.5500 36° Northeast 520 598 33,000  Level Edmonton Center
Mon 01:41:02 AM 56.2833 -97.4000 32° Northeast 520 598 33,000  Level Edmonton Center
Mon 01:42:02 AM 56.4000 -97.2333 38° Northeast 520 598 33,000  Level Edmonton Center
Mon 01:43:02 AM 56.5167 -97.0833 35° Northeast 520 598 33,000  Level Edmonton Center
Mon 01:44:02 AM 56.6333 -96.9333 35° Northeast 520 598 33,000  Level Edmonton Center
Mon 01:45:02 AM 56.7500 -96.7833 35° Northeast 520 598 33,000  Level Edmonton Center
Mon 01:46:02 AM 56.8667 -96.6000 41° Northeast 520 598 33,000  Level Edmonton Center
Mon 01:47:02 AM 56.9833 -96.4500 35° Northeast 510 587 33,000  Level Edmonton Center
Mon 01:48:02 AM 57.1000 -96.2833 38° Northeast 510 587 33,000  Level Edmonton Center
Mon 01:49:02 AM 57.2167 -96.1333 35° Northeast 510 587 33,000  Level Edmonton Center
Mon 01:50:02 AM 57.3333 -95.9833 35° Northeast 510 587 33,000  Level Edmonton Center
Mon 01:51:02 AM 57.4500 -95.8333 35° Northeast 510 587 33,000  Level Edmonton Center
Mon 01:52:02 AM 57.5500 -95.6667 42° Northeast 510 587 33,000  Level Edmonton Center
Mon 01:53:02 AM 57.6833 -95.4833 36° Northeast 510 587 33,000  Level Edmonton Center
Mon 01:54:02 AM 57.7833 -95.3167 42° Northeast 510 587 33,000  Level Edmonton Center
Mon 01:55:02 AM 57.9167 -95.1667 31° Northeast 510 587 33,000  Level Edmonton Center
Mon 01:56:02 AM 58.0167 -95.0000 41° Northeast 510 587 33,000  Level Edmonton Center
Mon 01:57:02 AM 58.1500 -94.8333 33° Northeast 510 587 33,000  Level Edmonton Center
Mon 01:58:02 AM 58.2500 -94.6667 41° Northeast 510 587 33,000  Level Edmonton Center
Mon 01:59:02 AM 58.3500 -94.5167 38° Northeast 510 587 33,000  Level Edmonton Center
Mon 02:00:02 AM 58.4833 -94.3500 33° Northeast 510 587 33,000  Level Edmonton Center
Mon 02:01:02 AM 58.5833 -94.1833 41° Northeast 510 587 33,000  Level Edmonton Center
Mon 02:02:02 AM 58.7000 -94.0000 39° Northeast 510 587 33,000  Level Edmonton Center
Mon 02:03:02 AM 58.8167 -93.8333 36° Northeast 510 587 33,000  Level Edmonton Center
Mon 02:04:02 AM 58.9333 -93.6333 41° Northeast 510 587 33,000 Level Edmonton Center
Mon 02:06:00 AM 59.1581 -93.3002 37° Northeast  Level FlightAware Approximate
Mon 02:13:00 AM 59.9510 -92.0781 37° Northeast  Level FlightAware Approximate
Mon 02:14:00 AM 60.0675 -91.9100 34° Northeast  Level FlightAware Approximate
Mon 02:15:00 AM 60.1869 -91.7495 34° Northeast  Level FlightAware Approximate
Mon 02:16:00 AM 60.3062 -91.5879 34° Northeast  Level FlightAware Approximate
Mon 02:17:00 AM 60.4252 -91.4250 34° Northeast  Level FlightAware Approximate
Mon 02:18:00 AM 60.5441 -91.2610 34° Northeast  Level FlightAware Approximate
Mon 02:19:00 AM 60.6633 -91.0976 34° Northeast  Level FlightAware Approximate
Mon 02:20:00 AM 60.7829 -90.9347 34° Northeast  Level FlightAware Approximate
Mon 02:21:00 AM 60.9023 -90.7705 34° Northeast  Level FlightAware Approximate
Mon 02:22:00 AM 61.0215 -90.6051 34° Northeast  Level FlightAware Approximate
Mon 02:23:00 AM 61.1405 -90.4384 34° Northeast  Level FlightAware Approximate
Mon 02:24:00 AM 61.2593 -90.2705 34° Northeast  Level FlightAware Approximate
Mon 02:25:00 AM 61.3779 -90.1013 34° Northeast  Level FlightAware Approximate
Mon 02:26:00 AM 61.4963 -89.9308 34° Northeast  Level FlightAware Approximate
Mon 02:27:00 AM 61.6144 -89.7591 35° Northeast  Level FlightAware Approximate
Mon 02:28:00 AM 61.7324 -89.5860 35° Northeast  Level FlightAware Approximate
Mon 02:29:00 AM 61.8501 -89.4116 35° Northeast  Level FlightAware Approximate
Mon 02:30:00 AM 61.9676 -89.2358 35° Northeast  Level FlightAware Approximate
Mon 02:31:00 AM 62.0849 -89.0587 35° Northeast  Level FlightAware Approximate
Mon 02:32:00 AM 62.2019 -88.8802 35° Northeast  Level FlightAware Approximate
Mon 02:33:00 AM 62.3187 -88.7003 36° Northeast  Level FlightAware Approximate
Mon 02:34:00 AM 62.4352 -88.5189 36° Northeast  Level FlightAware Approximate
Mon 02:35:00 AM 62.5514 -88.3358 36° Northeast  Level FlightAware Approximate
Mon 02:36:00 AM 62.6674 -88.1513 36° Northeast  Level FlightAware Approximate
Mon 02:37:00 AM 62.7832 -87.9654 36° Northeast  Level FlightAware Approximate
Mon 02:38:00 AM 62.8987 -87.7780 36° Northeast  Level FlightAware Approximate
Mon 02:39:00 AM 63.0139 -87.5892 37° Northeast  Level FlightAware Approximate
Mon 02:40:00 AM 63.1289 -87.3988 37° Northeast  Level FlightAware Approximate
Mon 02:41:00 AM 63.2436 -87.2069 37° Northeast  Level FlightAware Approximate
Mon 02:42:00 AM 63.3581 -87.0135 37° Northeast  Level FlightAware Approximate
Mon 02:43:00 AM 63.4723 -86.8186 37° Northeast  Level FlightAware Approximate
Mon 02:44:00 AM 63.5863 -86.6221 37° Northeast  Level FlightAware Approximate
Mon 02:45:00 AM 63.6999 -86.4240 38° Northeast  Level FlightAware Approximate
Mon 02:46:00 AM 63.8133 -86.2243 38° Northeast  Level FlightAware Approximate
Mon 02:47:00 AM 63.9264 -86.0230 38° Northeast  Level FlightAware Approximate
Mon 02:48:00 AM 64.0393 -85.8201 38° Northeast  Level FlightAware Approximate
Mon 02:49:00 AM 64.1518 -85.6155 38° Northeast  Level FlightAware Approximate
Mon 02:50:00 AM 64.2641 -85.4093 39° Northeast  Level FlightAware Approximate
Mon 02:51:00 AM 64.3760 -85.2013 39° Northeast  Level FlightAware Approximate
Mon 02:52:00 AM 64.4877 -84.9917 39° Northeast  Level FlightAware Approximate
Mon 02:53:00 AM 64.5991 -84.7804 39° Northeast  Level FlightAware Approximate
Mon 02:54:00 AM 64.7102 -84.5673 39° Northeast  Level FlightAware Approximate
Mon 02:55:00 AM 64.8209 -84.3525 39° Northeast  Level FlightAware Approximate
Mon 02:56:00 AM 64.9313 -84.1359 40° Northeast  Level FlightAware Approximate
Mon 02:57:00 AM 65.0454 -83.9301 33° Northeast  Level FlightAware Approximate
Mon 02:58:00 AM 65.1657 -83.7433 33° Northeast  Level FlightAware Approximate
Mon 02:59:00 AM 65.2858 -83.5549 33° Northeast  Level FlightAware Approximate
Mon 03:00:00 AM 65.4056 -83.3647 33° Northeast  Level FlightAware Approximate
Mon 03:01:00 AM 65.5253 -83.1728 34° Northeast  Level FlightAware Approximate
Mon 03:02:00 AM 65.6446 -82.9791 34° Northeast  Level FlightAware Approximate
Mon 03:03:00 AM 65.7637 -82.7837 34° Northeast  Level FlightAware Approximate
Mon 03:04:00 AM 65.8826 -82.5864 34° Northeast  Level FlightAware Approximate
Mon 03:05:00 AM 66.0012 -82.3873 34° Northeast  Level FlightAware Approximate
Mon 03:06:00 AM 66.1195 -82.1863 34° Northeast  Level FlightAware Approximate
Mon 03:07:00 AM 66.2376 -81.9835 35° Northeast  Level FlightAware Approximate
Mon 03:08:00 AM 66.3554 -81.7787 35° Northeast  Level FlightAware Approximate
Mon 03:09:00 AM 66.4730 -81.5720 35° Northeast  Level FlightAware Approximate
Mon 03:10:00 AM 66.5902 -81.3634 35° Northeast  Level FlightAware Approximate
Mon 03:11:00 AM 66.7072 -81.1528 35° Northeast  Level FlightAware Approximate
Mon 03:12:00 AM 66.8239 -80.9401 36° Northeast  Level FlightAware Approximate
Mon 03:13:00 AM 66.9403 -80.7255 36° Northeast  Level FlightAware Approximate
Mon 03:14:00 AM 67.0564 -80.5088 36° Northeast  Level FlightAware Approximate
Mon 03:15:00 AM 67.1723 -80.2900 36° Northeast  Level FlightAware Approximate
Mon 03:16:00 AM 67.2878 -80.0691 36° Northeast  Level FlightAware Approximate
Mon 03:17:00 AM 67.4030 -79.8461 37° Northeast  Level FlightAware Approximate
Mon 03:18:00 AM 67.5180 -79.6212 37° Northeast  Level FlightAware Approximate
Mon 03:19:00 AM 67.6327 -79.3940 37° Northeast  Level FlightAware Approximate
Mon 03:20:00 AM 67.7470 -79.1647 37° Northeast  Level FlightAware Approximate
Mon 03:21:00 AM 67.8610 -78.9331 37° Northeast  Level FlightAware Approximate
Mon 03:22:00 AM 67.9747 -78.6992 38° Northeast  Level FlightAware Approximate
Mon 03:23:00 AM 68.0880 -78.4630 38° Northeast  Level FlightAware Approximate
Mon 03:24:00 AM 68.2010 -78.2245 38° Northeast  Level FlightAware Approximate
Mon 03:25:00 AM 68.3137 -77.9836 38° Northeast  Level FlightAware Approximate
Mon 03:26:00 AM 68.4260 -77.7403 38° Northeast  Level FlightAware Approximate
Mon 03:27:00 AM 68.5380 -77.4947 39° Northeast  Level FlightAware Approximate
Mon 03:28:00 AM 68.6496 -77.2465 39° Northeast  Level FlightAware Approximate
Mon 03:29:00 AM 68.7611 -76.9970 39° Northeast  Level FlightAware Approximate
Mon 03:30:00 AM 68.8726 -76.7459 39° Northeast  Level FlightAware Approximate
Mon 03:31:00 AM 68.9837 -76.4923 39° Northeast  Level FlightAware Approximate
Mon 03:32:00 AM 69.0944 -76.2361 40° Northeast  Level FlightAware Approximate
Mon 03:33:00 AM 69.2047 -75.9773 40° Northeast  Level FlightAware Approximate
Mon 03:34:00 AM 69.3146 -75.7158 40° Northeast  Level FlightAware Approximate
Mon 03:35:00 AM 69.4241 -75.4517 40° Northeast  Level FlightAware Approximate
Mon 03:36:00 AM 69.5332 -75.1849 40° Northeast  Level FlightAware Approximate
Mon 03:37:00 AM 69.6420 -74.9154 41° Northeast  Level FlightAware Approximate
Mon 03:38:00 AM 69.7502 -74.6431 41° Northeast  Level FlightAware Approximate
Mon 03:39:00 AM 69.8581 -74.3680 41° Northeast  Level FlightAware Approximate
Mon 03:40:00 AM 69.9655 -74.0900 41° Northeast  Level FlightAware Approximate
Mon 03:41:00 AM 70.0621 -73.7799 50° Northeast  Level FlightAware Approximate
Mon 03:42:00 AM 70.1531 -73.4529 51° Northeast  Level FlightAware Approximate
Mon 03:43:00 AM 70.2435 -73.1232 51° Northeast  Level FlightAware Approximate
Mon 03:44:00 AM 70.3333 -72.7905 51° Northeast  Level FlightAware Approximate
Mon 03:45:00 AM 70.4224 -72.4548 51° Northeast  Level FlightAware Approximate
Mon 03:46:00 AM 70.5126 -72.1201 51° Northeast  Level FlightAware Approximate
Mon 03:47:00 AM 70.6028 -71.7840 51° Northeast  Level FlightAware Approximate
Mon 03:48:00 AM 70.6925 -71.4450 51° Northeast  Level FlightAware Approximate
Mon 03:49:00 AM 70.7815 -71.1030 52° Northeast  Level FlightAware Approximate
Mon 03:50:00 AM 70.8698 -70.7579 52° Northeast  Level FlightAware Approximate
Mon 03:51:00 AM 70.9575 -70.4097 52° Northeast  Level FlightAware Approximate
Mon 03:52:00 AM 71.0446 -70.0584 53° Northeast  Level FlightAware Approximate
Mon 03:53:00 AM 71.1310 -69.7040 53° Northeast  Level FlightAware Approximate
Mon 03:54:00 AM 71.2167 -69.3465 53° Northeast  Level FlightAware Approximate
Mon 03:55:00 AM 71.3017 -68.9859 54° Northeast  Level FlightAware Approximate
Mon 03:56:00 AM 71.3855 -68.6209 54° Northeast  Level FlightAware Approximate
Mon 03:57:00 AM 71.4683 -68.2520 55° Northeast  Level FlightAware Approximate
Mon 03:58:00 AM 71.5503 -67.8800 55° Northeast  Level FlightAware Approximate
Mon 03:59:00 AM 71.6317 -67.5048 55° Northeast  Level FlightAware Approximate
Mon 04:00:00 AM 71.7122 -67.1264 56° Northeast  Level FlightAware Approximate
Mon 04:01:00 AM 71.7921 -66.7447 56° Northeast  Level FlightAware Approximate
Mon 04:02:00 AM 71.8712 -66.3599 56° Northeast  Level FlightAware Approximate
Mon 04:03:00 AM 71.9504 -65.9737 56° Northeast  Level FlightAware Approximate
Mon 04:04:00 AM 72.0291 -65.5847 57° Northeast  Level FlightAware Approximate
Mon 04:05:00 AM 72.1069 -65.1923 57° Northeast  Level FlightAware Approximate
Mon 04:06:00 AM 72.1840 -64.7967 58° Northeast  Level FlightAware Approximate
Mon 04:07:00 AM 72.2595 -64.3962 58° Northeast  Level FlightAware Approximate
Mon 04:08:00 AM 72.3342 -63.9925 58° Northeast  Level FlightAware Approximate
Mon 04:09:00 AM 72.4081 -63.5855 59° Northeast  Level FlightAware Approximate
Mon 04:10:00 AM 72.4812 -63.1751 59° Northeast  Level FlightAware Approximate
Mon 04:11:00 AM 72.5534 -62.7615 60° Northeast  Level FlightAware Approximate
Mon 04:12:00 AM 72.6247 -62.3445 60° Northeast  Level FlightAware Approximate
Mon 04:13:00 AM 72.6952 -61.9243 60° Northeast  Level FlightAware Approximate
Mon 04:14:00 AM 72.7647 -61.5007 61° Northeast  Level FlightAware Approximate
Mon 04:15:00 AM 72.8334 -61.0738 61° Northeast  Level FlightAware Approximate
Mon 04:16:00 AM 72.9012 -60.6436 62° Northeast  Level FlightAware Approximate
Mon 04:17:00 AM 72.9681 -60.2101 62° Northeast  Level FlightAware Approximate
Mon 04:18:00 AM 73.0356 -59.7761 61° Northeast  Level FlightAware Approximate
Mon 04:19:00 AM 73.1037 -59.3415 62° Northeast  Level FlightAware Approximate
Mon 04:20:00 AM 73.1708 -58.9034 62° Northeast  Level FlightAware Approximate
Mon 04:21:00 AM 73.2370 -58.4619 62° Northeast  Level FlightAware Approximate
Mon 04:22:00 AM 73.3022 -58.0171 63° Northeast  Level FlightAware Approximate
Mon 04:23:00 AM 73.3665 -57.5689 63° Northeast  Level FlightAware Approximate
Mon 04:24:00 AM 73.4316 -57.1205 63° Northeast  Level FlightAware Approximate
Mon 04:25:00 AM 73.4964 -56.6698 63° Northeast  Level FlightAware Approximate
Mon 04:26:00 AM 73.5602 -56.2156 63° Northeast  Level FlightAware Approximate
Mon 04:27:00 AM 73.6231 -55.7580 64° Northeast  Level FlightAware Approximate
Mon 04:28:00 AM 73.6849 -55.2971 64° Northeast  Level FlightAware Approximate
Mon 04:29:00 AM 73.7458 -54.8327 65° Northeast  Level FlightAware Approximate
Mon 04:30:00 AM 73.8049 -54.3638 66° East  Level FlightAware Approximate
Mon 04:31:00 AM 73.8629 -53.8916 66° East  Level FlightAware Approximate
Mon 04:32:00 AM 73.9198 -53.4160 66° East  Level FlightAware Approximate
Mon 04:33:00 AM 73.9757 -52.9372 67° East  Level FlightAware Approximate
Mon 04:34:00 AM 74.0306 -52.4551 67° East  Level FlightAware Approximate
Mon 04:35:00 AM 74.0843 -51.9698 68° East  Level FlightAware Approximate
Mon 04:36:00 AM 74.1370 -51.4814 68° East  Level FlightAware Approximate
Mon 04:37:00 AM 74.1885 -50.9898 69° East  Level FlightAware Approximate
Mon 04:38:00 AM 74.2390 -50.4952 69° East  Level FlightAware Approximate
Mon 04:39:00 AM 74.2883 -49.9975 70° East  Level FlightAware Approximate
Mon 04:40:00 AM 74.3365 -49.4967 70° East  Level FlightAware Approximate
Mon 04:41:00 AM 74.3835 -48.9930 71° East  Level FlightAware Approximate
Mon 04:42:00 AM 74.4294 -48.4863 71° East  Level FlightAware Approximate
Mon 04:43:00 AM 74.4741 -47.9768 72° East  Level FlightAware Approximate
Mon 04:44:00 AM 74.5177 -47.4644 72° East  Level FlightAware Approximate
Mon 04:45:00 AM 74.5601 -46.9492 73° East  Level FlightAware Approximate
Mon 04:46:00 AM 74.6012 -46.4314 73° East  Level FlightAware Approximate
Mon 04:47:00 AM 74.6412 -45.9108 74° East  Level FlightAware Approximate
Mon 04:48:00 AM 74.6799 -45.3876 74° East  Level FlightAware Approximate
Mon 04:49:00 AM 74.7175 -44.8619 75° East  Level FlightAware Approximate
Mon 04:50:00 AM 74.7538 -44.3337 75° East  Level FlightAware Approximate
Mon 04:51:00 AM 74.7888 -43.8031 76° East  Level FlightAware Approximate
Mon 04:52:00 AM 74.8226 -43.2702 76° East  Level FlightAware Approximate
Mon 04:53:00 AM 74.8552 -42.7349 77° East  Level FlightAware Approximate
Mon 04:54:00 AM 74.8864 -42.1975 77° East  Level FlightAware Approximate
Mon 04:55:00 AM 74.9164 -41.6579 78° East  Level FlightAware Approximate
Mon 04:56:00 AM 74.9452 -41.1162 78° East  Level FlightAware Approximate
Mon 04:57:00 AM 74.9726 -40.5726 79° East  Level FlightAware Approximate
Mon 04:58:00 AM 74.9987 -40.0271 79° East  Level FlightAware Approximate
Mon 04:59:00 AM 74.9974 -39.4724 91° East  Level FlightAware Approximate
Mon 05:00:00 AM 74.9933 -38.9175 91° East  Level FlightAware Approximate
Mon 05:01:00 AM 74.9879 -38.3630 92° East  Level FlightAware Approximate
Mon 05:02:00 AM 74.9811 -37.8088 92° East  Level FlightAware Approximate
Mon 05:03:00 AM 74.9730 -37.2553 93° East  Level FlightAware Approximate
Mon 05:04:00 AM 74.9636 -36.7023 93° East  Level FlightAware Approximate
Mon 05:05:00 AM 74.9528 -36.1501 94° East  Level FlightAware Approximate
Mon 05:06:00 AM 74.9407 -35.5987 95° East  Level FlightAware Approximate
Mon 05:07:00 AM 74.9272 -35.0482 95° East  Level FlightAware Approximate
Mon 05:08:00 AM 74.9125 -34.4987 96° East  Level FlightAware Approximate
Mon 05:09:00 AM 74.8964 -33.9504 96° East  Level FlightAware Approximate
Mon 05:10:00 AM 74.8790 -33.4032 97° East  Level FlightAware Approximate
Mon 05:11:00 AM 74.8603 -32.8572 97° East  Level FlightAware Approximate
Mon 05:12:00 AM 74.8402 -32.3127 98° East  Level FlightAware Approximate
Mon 05:13:00 AM 74.8189 -31.7696 98° East  Level FlightAware Approximate
Mon 05:14:00 AM 74.7963 -31.2280 99° East  Level FlightAware Approximate
Mon 05:15:00 AM 74.7724 -30.6880 99° East  Level FlightAware Approximate
Mon 05:16:00 AM 74.7472 -30.1498 100° East  Level FlightAware Approximate
Mon 05:17:00 AM 74.7207 -29.6133 100° East  Level FlightAware Approximate
Mon 05:18:00 AM 74.6929 -29.0786 101° East  Level FlightAware Approximate
Mon 05:19:00 AM 74.6639 -28.5459 101° East  Level FlightAware Approximate
Mon 05:20:00 AM 74.6337 -28.0153 102° East  Level FlightAware Approximate
Mon 05:21:00 AM 74.6021 -27.4866 102° East  Level FlightAware Approximate
Mon 05:22:00 AM 74.5694 -26.9602 103° East  Level FlightAware Approximate
Mon 05:23:00 AM 74.5353 -26.4359 103° East  Level FlightAware Approximate
Mon 05:24:00 AM 74.5001 -25.9140 104° East  Level FlightAware Approximate
Mon 05:25:00 AM 74.4637 -25.3944 104° East  Level FlightAware Approximate
Mon 05:26:00 AM 74.4260 -24.8772 105° East  Level FlightAware Approximate
Mon 05:27:00 AM 74.3871 -24.3624 105° East  Level FlightAware Approximate
Mon 05:28:00 AM 74.3471 -23.8502 106° East  Level FlightAware Approximate
Mon 05:29:00 AM 74.3058 -23.3406 106° East  Level FlightAware Approximate
Mon 05:30:00 AM 74.2634 -22.8337 107° East  Level FlightAware Approximate
Mon 05:31:00 AM 74.2198 -22.3294 107° East  Level FlightAware Approximate
Mon 05:32:00 AM 74.1751 -21.8279 108° East  Level FlightAware Approximate
Mon 05:33:00 AM 74.1292 -21.3291 108° East  Level FlightAware Approximate
Mon 05:34:00 AM 74.0822 -20.8332 109° East  Level FlightAware Approximate
Mon 05:35:00 AM 74.0340 -20.3402 109° East  Level FlightAware Approximate
Mon 05:36:00 AM 73.9827 -19.8532 113° Southeast  Level FlightAware Approximate
Mon 05:37:00 AM 73.9254 -19.3763 113° Southeast  Level FlightAware Approximate
Mon 05:38:00 AM 73.8671 -18.9027 114° Southeast  Level FlightAware Approximate
Mon 05:39:00 AM 73.8077 -18.4325 114° Southeast  Level FlightAware Approximate
Mon 05:40:00 AM 73.7473 -17.9657 115° Southeast  Level FlightAware Approximate
Mon 05:41:00 AM 73.6859 -17.5023 115° Southeast  Level FlightAware Approximate
Mon 05:42:00 AM 73.6235 -17.0422 116° Southeast  Level FlightAware Approximate
Mon 05:43:00 AM 73.5601 -16.5856 116° Southeast  Level FlightAware Approximate
Mon 05:44:00 AM 73.4958 -16.1325 116° Southeast  Level FlightAware Approximate
Mon 05:45:00 AM 73.4304 -15.6827 117° Southeast  Level FlightAware Approximate
Mon 05:46:00 AM 73.3641 -15.2365 117° Southeast  Level FlightAware Approximate
Mon 05:47:00 AM 73.2969 -14.7937 118° Southeast  Level FlightAware Approximate
Mon 05:48:00 AM 73.2287 -14.3544 118° Southeast  Level FlightAware Approximate
Mon 05:49:00 AM 73.1596 -13.9185 119° Southeast  Level FlightAware Approximate
Mon 05:50:00 AM 73.0896 -13.4862 119° Southeast  Level FlightAware Approximate
Mon 05:51:00 AM 73.0186 -13.0573 119° Southeast  Level FlightAware Approximate
Mon 05:52:00 AM 72.9468 -12.6319 120° Southeast  Level FlightAware Approximate
Mon 05:53:00 AM 72.8742 -12.2100 120° Southeast  Level FlightAware Approximate
Mon 05:54:00 AM 72.8006 -11.7916 121° Southeast  Level FlightAware Approximate
Mon 05:55:00 AM 72.7262 -11.3766 121° Southeast  Level FlightAware Approximate
Mon 05:56:00 AM 72.6509 -10.9651 121° Southeast  Level FlightAware Approximate
Mon 05:57:00 AM 72.5749 -10.5571 122° Southeast  Level FlightAware Approximate
Mon 05:58:00 AM 72.4979 -10.1526 122° Southeast  Level FlightAware Approximate
Mon 05:59:00 AM 72.4202 -9.7515 123° Southeast  Level FlightAware Approximate
Mon 06:00:00 AM 72.3417 -9.3538 123° Southeast  Level FlightAware Approximate
Mon 06:01:00 AM 72.2624 -8.9595 123° Southeast  Level FlightAware Approximate
Mon 06:02:00 AM 72.1823 -8.5687 124° Southeast  Level FlightAware Approximate
Mon 06:03:00 AM 72.1014 -8.1813 124° Southeast  Level FlightAware Approximate
Mon 06:04:00 AM 72.0198 -7.7972 124° Southeast  Level FlightAware Approximate
Mon 06:05:00 AM 71.9374 -7.4166 125° Southeast  Level FlightAware Approximate
Mon 06:06:00 AM 71.8543 -7.0392 125° Southeast  Level FlightAware Approximate
Mon 06:07:00 AM 71.7705 -6.6653 126° Southeast  Level FlightAware Approximate
Mon 06:08:00 AM 71.6859 -6.2946 126° Southeast  Level FlightAware Approximate
Mon 06:09:00 AM 71.6006 -5.9273 126° Southeast  Level FlightAware Approximate
Mon 06:10:00 AM 71.5147 -5.5632 127° Southeast  Level FlightAware Approximate
Mon 06:11:00 AM 71.4280 -5.2024 127° Southeast  Level FlightAware Approximate
Mon 06:12:00 AM 71.3407 -4.8449 127° Southeast  Level FlightAware Approximate
Mon 06:13:00 AM 71.2527 -4.4905 128° Southeast  Level FlightAware Approximate
Mon 06:14:00 AM 71.1640 -4.1394 128° Southeast  Level FlightAware Approximate
Mon 06:15:00 AM 71.0747 -3.7915 128° Southeast  Level FlightAware Approximate
Mon 06:16:00 AM 70.9847 -3.4467 129° Southeast  Level FlightAware Approximate
Mon 06:17:00 AM 70.8941 -3.1051 129° Southeast  Level FlightAware Approximate
Mon 06:18:00 AM 70.8029 -2.7665 129° Southeast  Level FlightAware Approximate
Mon 06:19:00 AM 70.7111 -2.4311 130° Southeast  Level FlightAware Approximate
Mon 06:20:00 AM 70.6186 -2.0988 130° Southeast  Level FlightAware Approximate
Mon 06:21:00 AM 70.5256 -1.7694 130° Southeast  Level FlightAware Approximate
Mon 06:22:00 AM 70.4320 -1.4431 130° Southeast  Level FlightAware Approximate
Mon 06:23:00 AM 70.3378 -1.1198 131° Southeast  Level FlightAware Approximate
Mon 06:24:00 AM 70.2430 -0.7995 131° Southeast  Level FlightAware Approximate
Mon 06:25:00 AM 70.1476 -0.4821 131° Southeast  Level FlightAware Approximate
Mon 06:26:00 AM 70.0517 -0.1677 132° Southeast  Level FlightAware Approximate
Mon 06:27:00 AM 69.9542 0.1410 133° Southeast  Level FlightAware Approximate
Mon 06:28:00 AM 69.8549 0.4435 134° Southeast  Level FlightAware Approximate
Mon 06:29:00 AM 69.7552 0.7431 134° Southeast  Level FlightAware Approximate
Mon 06:30:00 AM 69.6549 1.0399 134° Southeast  Level FlightAware Approximate
Mon 06:31:00 AM 69.5541 1.3340 134° Southeast  Level FlightAware Approximate
Mon 06:32:00 AM 69.4528 1.6252 135° Southeast  Level FlightAware Approximate
Mon 06:33:00 AM 69.3511 1.9137 135° Southeast  Level FlightAware Approximate
Mon 06:34:00 AM 69.2488 2.1995 135° Southeast  Level FlightAware Approximate
Mon 06:35:00 AM 69.1462 2.4826 135° Southeast  Level FlightAware Approximate
Mon 06:36:00 AM 69.0430 2.7630 136° Southeast  Level FlightAware Approximate
Mon 06:37:00 AM 68.9394 3.0408 136° Southeast  Level FlightAware Approximate
Mon 06:38:00 AM 68.8353 3.3160 136° Southeast  Level FlightAware Approximate
Mon 06:39:00 AM 68.7308 3.5887 137° Southeast  Level FlightAware Approximate
Mon 06:40:00 AM 68.6259 3.8588 137° Southeast  Level FlightAware Approximate
Mon 06:41:00 AM 68.5205 4.1263 137° Southeast  Level FlightAware Approximate
Mon 06:42:00 AM 68.4148 4.3914 137° Southeast  Level FlightAware Approximate
Mon 06:43:00 AM 68.3086 4.6540 138° Southeast  Level FlightAware Approximate
Mon 06:44:00 AM 68.2020 4.9142 138° Southeast  Level FlightAware Approximate
Mon 06:45:00 AM 68.0949 5.1719 138° Southeast  Level FlightAware Approximate
Mon 06:46:00 AM 67.9875 5.4273 138° Southeast  Level FlightAware Approximate
Mon 06:47:00 AM 67.8797 5.6803 138° Southeast  Level FlightAware Approximate
Mon 06:48:00 AM 67.7716 5.9310 139° Southeast  Level FlightAware Approximate
Mon 06:49:00 AM 67.6630 6.1793 139° Southeast  Level FlightAware Approximate
Mon 06:50:00 AM 67.5540 6.4254 139° Southeast  Level FlightAware Approximate
Mon 06:51:00 AM 67.4447 6.6692 139° Southeast  Level FlightAware Approximate
Mon 06:52:00 AM 67.3351 6.9108 140° Southeast  Level FlightAware Approximate
Mon 06:53:00 AM 67.2250 7.1501 140° Southeast  Level FlightAware Approximate
Mon 06:54:00 AM 67.1146 7.3873 140° Southeast  Level FlightAware Approximate
Mon 06:55:00 AM 67.0039 7.6224 140° Southeast  Level FlightAware Approximate
Mon 06:56:00 AM 66.8928 7.8552 141° Southeast  Level FlightAware Approximate
Mon 06:57:00 AM 66.7814 8.0860 141° Southeast  Level FlightAware Approximate
Mon 06:58:00 AM 66.6696 8.3147 141° Southeast  Level FlightAware Approximate
Mon 06:59:00 AM 66.5576 8.5414 141° Southeast  Level FlightAware Approximate
Mon 07:00:00 AM 66.4452 8.7660 141° Southeast  Level FlightAware Approximate
Mon 07:01:00 AM 66.3324 8.9886 142° Southeast  Level FlightAware Approximate
Mon 07:02:00 AM 66.2194 9.2092 142° Southeast  Level FlightAware Approximate
Mon 07:03:00 AM 66.1060 9.4278 142° Southeast  Level FlightAware Approximate
Mon 07:04:00 AM 65.9924 9.6444 142° Southeast  Level FlightAware Approximate
Mon 07:05:00 AM 65.8784 9.8592 142° Southeast  Level FlightAware Approximate
Mon 07:06:00 AM 65.7645 10.0730 142° Southeast  Level FlightAware Approximate
Mon 07:07:00 AM 65.6502 10.2848 143° Southeast  Level FlightAware Approximate
Mon 07:08:00 AM 65.5356 10.4948 143° Southeast  Level FlightAware Approximate
Mon 07:09:00 AM 65.4208 10.7029 143° Southeast  Level FlightAware Approximate
Mon 07:10:00 AM 65.3056 10.9092 143° Southeast  Level FlightAware Approximate
Mon 07:11:00 AM 65.1902 11.1138 143° Southeast  Level FlightAware Approximate
Mon 07:12:00 AM 65.0745 11.3165 144° Southeast  Level FlightAware Approximate
Mon 07:13:00 AM 64.9585 11.5175 144° Southeast  Level FlightAware Approximate
Mon 07:14:00 AM 64.8423 11.7167 144° Southeast  Level FlightAware Approximate
Mon 07:15:00 AM 64.7258 11.9143 144° Southeast  Level FlightAware Approximate
Mon 07:16:00 AM 64.6090 12.1101 144° Southeast  Level FlightAware Approximate
Mon 07:17:00 AM 64.4920 12.3043 144° Southeast  Level FlightAware Approximate
Mon 07:18:00 AM 64.3747 12.4968 145° Southeast  Level FlightAware Approximate
Mon 07:19:00 AM 64.2572 12.6877 145° Southeast  Level FlightAware Approximate
Mon 07:20:00 AM 64.1394 12.8769 145° Southeast  Level FlightAware Approximate
Mon 07:21:00 AM 64.0214 13.0646 145° Southeast  Level FlightAware Approximate
Mon 07:22:00 AM 63.9032 13.2506 145° Southeast  Level FlightAware Approximate
Mon 07:23:00 AM 63.7847 13.4351 145° Southeast  Level FlightAware Approximate
Mon 07:24:00 AM 63.6660 13.6181 146° Southeast  Level FlightAware Approximate
Mon 07:25:00 AM 63.5470 13.7995 146° Southeast  Level FlightAware Approximate
Mon 07:26:00 AM 63.4278 13.9795 146° Southeast  Level FlightAware Approximate
Mon 07:27:00 AM 63.3084 14.1579 146° Southeast  Level FlightAware Approximate
Mon 07:28:00 AM 63.1888 14.3349 146° Southeast  Level FlightAware Approximate
Mon 07:29:00 AM 63.0690 14.5104 146° Southeast  Level FlightAware Approximate
Mon 07:30:00 AM 62.9489 14.6844 147° Southeast  Level FlightAware Approximate
Mon 07:31:00 AM 62.8286 14.8571 147° Southeast  Level FlightAware Approximate
Mon 07:32:00 AM 62.7081 15.0283 147° Southeast  Level FlightAware Approximate
Mon 07:33:00 AM 62.5875 15.1981 147° Southeast  Level FlightAware Approximate
Mon 07:34:00 AM 62.4666 15.3666 147° Southeast  Level FlightAware Approximate
Mon 07:35:00 AM 62.3455 15.5337 147° Southeast  Level FlightAware Approximate
Mon 07:36:00 AM 62.2242 15.6995 147° Southeast  Level FlightAware Approximate
Mon 07:37:00 AM 62.1027 15.8639 148° Southeast  Level FlightAware Approximate
Mon 07:38:00 AM 61.9810 16.0270 148° Southeast  Level FlightAware Approximate
Mon 07:39:00 AM 61.8591 16.1888 148° Southeast  Level FlightAware Approximate
Mon 07:40:00 AM 61.7371 16.3494 148° Southeast  Level FlightAware Approximate
Mon 07:41:00 AM 61.6148 16.5086 148° Southeast  Level FlightAware Approximate
Mon 07:41:42 AM 60.9761 16.9721 148° Southeast 552 635 35,000  Level FlightAware ADS-B
Mon 07:42:00 AM 61.4924 16.6667 148° Southeast  Level FlightAware Approximate
Mon 07:42:18 AM 60.9008 17.0694 148° Southeast 552 635 35,000  Level FlightAware ADS-B
Mon 07:42:59 AM 60.8078 17.1888 148° Southeast 551 634 35,000  Level FlightAware ADS-B
Mon 07:43:38 AM 60.7243 17.2953 148° Southeast 550 633 35,000  Level FlightAware ADS-B
Mon 07:44:19 AM 60.6359 17.4074 148° Southeast 551 634 35,000  Level FlightAware ADS-B
Mon 07:44:58 AM 60.5527 17.5121 148° Southeast 550 633 35,000  Level FlightAware ADS-B
Mon 07:45:40 AM 60.4642 17.6227 148° Southeast 550 633 35,000  Level FlightAware ADS-B
Mon 07:46:18 AM 60.3804 17.7268 149° Southeast 549 632 35,000  Level FlightAware ADS-B
Mon 07:46:59 AM 60.2954 17.8320 149° Southeast 550 633 35,000  Level FlightAware ADS-B
Mon 07:47:39 AM 60.2059 17.9417 149° Southeast 549 632 35,000  Level FlightAware ADS-B
Mon 07:48:18 AM 60.1216 18.0448 149° Southeast 550 633 35,000  Level FlightAware ADS-B
Mon 07:49:01 AM 60.0340 18.1508 149° Southeast 550 633 35,000  Level FlightAware ADS-B
Mon 07:49:41 AM 59.9430 18.2606 149° Southeast 549 632 35,000  Level FlightAware ADS-B
Mon 07:50:19 AM 59.8597 18.3601 149° Southeast 548 631 35,000  Level FlightAware ADS-B
Mon 07:51:00 AM 59.7708 18.4661 149° Southeast 549 632 35,000  Level FlightAware ADS-B
Mon 07:51:39 AM 59.6855 18.5669 149° Southeast 549 632 35,000  Level FlightAware ADS-B
Mon 07:52:20 AM 59.6005 18.6668 149° Southeast 551 634 35,000  Level FlightAware ADS-B
Mon 07:53:00 AM 59.5081 18.7749 149° Southeast 550 633 35,000  Level FlightAware ADS-B
Mon 07:53:41 AM 59.4196 18.8775 150° Southeast 549 632 35,000  Level FlightAware ADS-B
Mon 07:54:20 AM 59.3331 18.9774 150° Southeast 550 633 35,000  Level FlightAware ADS-B
Mon 07:55:01 AM 59.2438 19.0798 150° Southeast 551 634 35,000  Level FlightAware ADS-B
Mon 07:55:40 AM 59.1600 19.1754 150° Southeast 551 634 35,000  Level FlightAware ADS-B
Mon 07:56:21 AM 59.0727 19.2743 150° Southeast 551 634 35,000  Level FlightAware ADS-B
Mon 07:57:00 AM 58.9837 19.3746 150° Southeast 549 632 35,000  Level FlightAware ADS-B
Mon 08:08:51 AM 57.4196 21.0982 149° Southeast 553 636 35,000  Level FlightAware ADS-B
Mon 08:09:51 AM 57.2899 21.2404 150° Southeast 551 634 35,000  Level FlightAware ADS-B
Mon 08:10:51 AM 57.1567 21.3850 150° Southeast 551 634 35,000  Level FlightAware ADS-B
Mon 08:11:51 AM 57.0243 21.5277 150° Southeast 555 639 35,000  Level FlightAware ADS-B
Mon 08:12:52 AM 56.9047 21.6556 150° Southeast 558 642 35,000  Level FlightAware ADS-B
Mon 08:13:51 AM 56.7613 21.8077 150° Southeast 557 641 35,000  Level FlightAware ADS-B
Mon 08:14:52 AM 56.6243 21.9519 150° Southeast 559 643 35,000  Level FlightAware ADS-B
Mon 08:15:52 AM 56.4899 22.0920 150° Southeast 562 647 35,000  Level FlightAware ADS-B
Mon 08:16:52 AM 56.3587 22.2101 157° South 562 647 35,000  Level FlightAware ADS-B
Mon 08:17:52 AM 56.2057 22.3246 158° South 562 647 35,000 300 Level FlightAware ADS-B
Mon 08:18:52 AM 56.0618 22.4301 158° South 562 647 35,600 1,000 Climbing FlightAware ADS-B
Mon 08:19:52 AM 55.9220 22.5325 158° South 544 626 37,000 700 Climbing FlightAware ADS-B
Mon 08:20:52 AM 55.7820 22.6343 158° South 545 627 37,000  Level FlightAware ADS-B
Mon 08:21:52 AM 55.6448 22.7334 158° South 543 625 37,000  Level FlightAware ADS-B
Mon 08:22:52 AM 55.5028 22.8351 158° South 543 625 37,000  Level FlightAware ADS-B
Mon 08:23:52 AM 55.3636 22.9340 158° South 544 626 37,000  Level FlightAware ADS-B
Mon 08:24:51 AM 55.2272 23.0303 158° South 544 626 37,000  Level FlightAware ADS-B
Mon 08:25:52 AM 55.0848 23.1300 158° South 543 625 37,000  Level FlightAware ADS-B
Mon 08:26:52 AM 54.9514 23.2226 158° South 543 625 37,000  Level FlightAware ADS-B
Mon 08:27:52 AM 54.8064 23.3227 158° South 545 627 37,000  Level FlightAware ADS-B
Mon 08:28:52 AM 54.6658 23.4189 158° South 541 623 37,000  Level FlightAware ADS-B
Mon 08:29:52 AM 54.5305 23.5107 159° South 540 621 37,000  Level FlightAware ADS-B
Mon 08:30:52 AM 54.3922 23.6040 159° South 538 619 37,000  Level FlightAware ADS-B
Mon 08:31:52 AM 54.2493 23.6997 159° South 538 619 37,000  Level FlightAware ADS-B
Mon 08:32:52 AM 54.1134 23.7900 159° South 538 619 37,000  Level FlightAware ADS-B
Mon 08:33:52 AM 53.9718 23.8825 160° South 536 617 37,000  Level FlightAware ADS-B
Mon 08:34:52 AM 53.8311 23.9539 165° South 534 615 37,000  Level FlightAware ADS-B
Mon 08:35:52 AM 53.6875 24.0196 165° South 536 617 37,000  Level FlightAware ADS-B
Mon 08:36:52 AM 53.5433 24.0832 167° South 534 615 37,000  Level FlightAware ADS-B
Mon 08:37:52 AM 53.3991 24.1388 167° South 536 617 37,000  Level FlightAware ADS-B
Mon 08:38:49 AM 53.2689 24.1896 167° South 538 619 37,000  Level FlightAware ADS-B
Mon 08:39:38 AM 53.1436 24.2387 167° South 532 612 37,000  Level FlightAware ADS-B
Mon 08:40:18 AM 53.0473 24.2764 167° South 530 610 37,000  Level FlightAware ADS-B
Mon 08:40:58 AM 52.9506 24.3121 167° South 529 609 37,000  Level FlightAware ADS-B
Mon 08:41:37 AM 52.8569 24.3460 167° South 528 608 37,000  Level FlightAware ADS-B
Mon 08:42:18 AM 52.7575 24.3821 167° South 527 606 37,000  Level FlightAware ADS-B
Mon 08:42:57 AM 52.6626 24.4166 167° South 527 606 37,000  Level FlightAware ADS-B
Mon 08:43:38 AM 52.5643 24.4520 168° South 527 606 37,000  Level FlightAware ADS-B
Mon 08:44:18 AM 52.4682 24.4866 167° South 525 604 37,000  Level FlightAware ADS-B
Mon 08:45:43 AM 52.2658 24.5593 168° South 530 610 37,000  Level FlightAware ADS-B
Mon 08:46:41 AM 52.1268 24.6087 168° South 526 605 37,000  Level FlightAware ADS-B
Mon 08:49:07 AM 51.7822 24.7298 168° South 514 592 37,000  Level FlightAware ADS-B
Mon 08:49:38 AM 51.7089 24.7555 168° South 511 588 37,000  Level FlightAware ADS-B
Mon 08:50:27 AM 51.5945 24.7952 168° South 509 586 37,000  Level FlightAware ADS-B
Mon 08:51:07 AM 51.5014 24.8275 168° South 508 585 37,000  Level FlightAware ADS-B
Mon 08:51:47 AM 51.4089 24.8595 168° South 508 585 37,000  Level FlightAware ADS-B
Mon 08:52:27 AM 51.3162 24.8914 168° South 512 589 37,000  Level FlightAware ADS-B
Mon 08:53:05 AM 51.2272 24.9217 168° South 510 587 37,000  Level FlightAware ADS-B
Mon 08:54:48 AM 50.9947 25.0008 167° South 505 581 37,000  Level FlightAware ADS-B
Mon 08:57:07 AM 50.6751 25.1072 168° South 507 583 37,000  Level FlightAware ADS-B
Mon 09:02:40 AM 49.9130 25.3556 168° South 504 580 37,000  Level FlightAware ADS-B
Mon 09:03:14 AM 49.8359 25.3801 168° South 505 581 37,000  Level FlightAware ADS-B
Mon 09:13:58 AM 48.3549 25.8384 169° South 508 585 37,000  Level FlightAware ADS-B (LRCL / CLJ)
Mon 09:15:29 AM 48.1466 25.9007 169° South 509 586 37,000  Level FlightAware ADS-B (LRCL / CLJ)
Mon 09:16:14 AM 48.0428 25.9317 168° South 510 587 37,000  Level FlightAware ADS-B (LRCL / CLJ)
Mon 09:16:57 AM 47.9476 25.9760 158° South 512 589 37,000  Level FlightAware ADS-B (LRCL / CLJ)
Mon 09:18:14 AM 47.7805 26.0970 153° Southeast 513 590 37,000  Level FlightAware ADS-B (LRCL / CLJ)
Mon 09:18:58 AM 47.6959 26.1593 154° Southeast 515 593 37,000  Level FlightAware ADS-B (LRCL / CLJ)
Mon 09:20:13 AM 47.5287 26.2797 154° Southeast 517 595 37,000  Level FlightAware ADS-B (LRCL / CLJ)
Mon 09:20:43 AM 47.4624 26.3270 154° Southeast 518 596 37,000  Level FlightAware ADS-B (LRCL / CLJ)
Mon 09:21:30 AM 47.3623 26.3980 154° Southeast 515 593 37,000  Level FlightAware ADS-B (LRCL / CLJ)
Mon 09:22:14 AM 47.2677 26.4651 154° Southeast 513 590 37,000  Level FlightAware ADS-B (LRCL / CLJ)
Mon 09:24:00 AM 47.0270 26.5836 161° South  Level FlightAware Approximate
Mon 09:25:00 AM 46.8906 26.6501 162° South  Level FlightAware Approximate
Mon 09:26:00 AM 46.7542 26.7163 162° South  Level FlightAware Approximate
Mon 09:27:00 AM 46.6178 26.7822 162° South  Level FlightAware Approximate
Mon 09:28:00 AM 46.4813 26.8478 162° South  Level FlightAware Approximate
Mon 09:29:00 AM 46.3448 26.9130 162° South  Level FlightAware Approximate
Mon 09:30:00 AM 46.2083 26.9779 162° South  Level FlightAware Approximate
Mon 09:31:00 AM 46.0717 27.0425 162° South  Level FlightAware Approximate
Mon 09:32:00 AM 45.9351 27.1067 162° South  Level FlightAware Approximate
Mon 09:33:00 AM 45.7985 27.1707 162° South  Level FlightAware Approximate
Mon 09:34:00 AM 45.6618 27.2343 162° South  Level FlightAware Approximate
Mon 09:35:00 AM 45.5251 27.2976 162° South  Level FlightAware Approximate
Mon 09:36:00 AM 45.3883 27.3606 162° South  Level FlightAware Approximate
Mon 09:37:00 AM 45.2515 27.4233 162° South  Level FlightAware Approximate
Mon 09:38:00 AM 45.1147 27.4858 162° South  Level FlightAware Approximate
Mon 09:39:00 AM 44.9778 27.5479 162° South  Level FlightAware Approximate
Mon 09:40:00 AM 44.8410 27.6097 162° South  Level FlightAware Approximate
Mon 09:41:00 AM 44.7040 27.6712 162° South  Level FlightAware Approximate
Mon 09:42:00 AM 44.5671 27.7324 162° South  Level FlightAware Approximate
Mon 09:43:00 AM 44.4301 27.7934 162° South  Level FlightAware Approximate
Mon 09:44:00 AM 44.2931 27.8540 162° South  Level FlightAware Approximate
Mon 09:45:00 AM 44.1560 27.9144 162° South  Level FlightAware Approximate
Mon 09:46:00 AM 44.0189 27.9745 163° South  Level FlightAware Approximate
Mon 09:47:00 AM 43.8818 28.0343 163° South  Level FlightAware Approximate
Mon 09:48:00 AM 43.7447 28.0938 163° South  Level FlightAware Approximate
Mon 09:49:00 AM 43.6075 28.1531 163° South  Level FlightAware Approximate
Mon 09:50:00 AM 43.4703 28.2121 163° South  Level FlightAware Approximate
Mon 09:51:00 AM 43.3331 28.2709 163° South  Level FlightAware Approximate
Mon 09:52:00 AM 43.1958 28.3293 163° South  Level FlightAware Approximate
Mon 09:53:00 AM 43.0585 28.3875 163° South  Level FlightAware Approximate
Mon 09:54:00 AM 42.9207 28.4480 160° South  Level FlightAware Approximate
Mon 09:55:00 AM 42.7828 28.5028 164° South  Level FlightAware Approximate
Mon 09:56:00 AM 42.6446 28.5560 164° South  Level FlightAware Approximate
Mon 09:57:00 AM 42.5069 28.6120 163° South  Level FlightAware Approximate
Mon 09:58:00 AM 42.3694 28.6686 163° South  Level FlightAware Approximate
Mon 09:59:00 AM 42.2304 28.7177 166° South  Level FlightAware Approximate
Mon 10:00:00 AM 42.0908 28.7642 166° South  Level FlightAware Approximate
Mon 10:01:00 AM 41.9474 28.7733 178° South  Level FlightAware Approximate
Mon 10:02:00 AM 41.8038 28.7813 178° South  Level FlightAware Approximate
Mon 10:03:00 AM 41.6601 28.7833 180° South  Level FlightAware Approximate
Mon 10:04:00 AM 41.5166 28.7898 177° South  Level FlightAware Approximate
Mon 10:05:00 AM 41.3731 28.8000 180° South  Level FlightAware Approximate
Mon 10:06:00 AM 41.2294 28.8000 180° South  Level FlightAware Approximate
Mon 10:07:00 AM 41.0856 28.8000 180° South  Level FlightAware Approximate
Mon 10:08:00 AM 40.9769 28.8211 180° South  Level Estimated
Mon 10:09:00 AM 40.9769 28.8211 180° South  Level Estimated
Mon 10:10:00 AM 40.9769 28.8211 180° South  Level Estimated
Mon 10:11:00 AM 40.9769 28.8211 180° South  Level Estimated
Mon 10:12:00 AM 40.9769 28.8211 180° South  Level Estimated
Mon 10:13:00 AM 40.9769 28.8211 180° South  Level Estimated
Mon 10:14:00 AM 40.9769 28.8211 180° South  Level Estimated
Mon 10:15:00 AM 40.9769 28.8211 180° South  Level Estimated
Mon 10:16:00 AM 40.9769 28.8211 180° South  Level Estimated
Mon 10:17:00 AM 40.9769 28.8211 180° South  Level Estimated
Mon 10:18:00 AM 40.9769 28.8211 180° South  Level Estimated
Mon 10:19:00 AM 40.9769 28.8211 180° South  Level Estimated
Mon 10:20:00 AM 40.9769 28.8211 180° South  Level Estimated
Mon 10:21:00 AM 40.9769 28.8211 180° South  Level Estimated
Mon 10:22:00 AM 40.9769 28.8211 180° South  Level Estimated
Mon 10:23:00 AM 40.9769 28.8211 180° South  Level Estimated
Mon 10:24:00 AM 40.9769 28.8211 180° South  Level Estimated
Mon 10:25:00 AM 40.9769 28.8211 180° South  Level Estimated
Mon 10:26:00 AM 40.9769 28.8211 180° South  Level Estimated
Mon 10:27:00 AM 40.9769 28.8211 180° South  Level Estimated

Login

Don't have an account? Register now (free) for customized features, flight alerts, and more!